Time;durP1;ratioP1;P1;durP2;ratioP2;P2;SDS_P1;SDS_P2;PMS_P1;PMS_P2;Temp;Humidity;BMP_temperature;BMP_pressure;BME280_temperature;BME280_humidity;BME280_pressure;Samples;Min_cycle;Max_cycle;Signal;HPM_P1;HPM_P2
2022/02/10 00:06:58;;;;;;;;;79.33;59.33;;;;;2.23;88.53;100483.19;6313961;20;2892137;-44
2022/02/10 00:18:03;;;;;;;;;89.33;66.00;;;;;2.21;89.37;100467.31;6315749;20;3647279;-44
2022/02/10 00:34:16;;;;;;;;;73.00;58.67;;;;;2.57;91.23;100475.59;6309686;20;3629602;-44
2022/02/10 00:39:58;;;;;;;;;72.50;57.00;;;;;2.71;91.54;100472.72;6279004;20;2863813;-44
2022/02/10 00:42:24;;;;;;;;;71.33;55.33;;;;;2.98;91.66;100479.34;6283967;20;2873270;-44
2022/02/10 00:44:53;;;;;;;;;79.00;59.00;;;;;3.13;91.48;100481.69;6313474;20;2872159;-46
2022/02/10 00:47:26;;;;;;;;;77.00;59.33;;;;;3.07;91.89;100476.50;6283578;20;3637751;-44
2022/02/10 00:49:59;;;;;;;;;72.00;54.33;;;;;2.94;92.26;100486.47;6316388;20;2875233;-45
2022/02/10 00:52:28;;;;;;;;;76.33;54.67;;;;;2.53;91.33;100487.19;6315431;20;3638127;-44
2022/02/10 00:55:00;;;;;;;;;76.00;57.67;;;;;2.06;89.67;100484.31;6310310;20;3636748;-45
2022/02/10 00:57:30;;;;;;;;;110.00;90.33;;;;;1.73;88.70;100488.28;6312113;20;3696070;-43
2022/02/10 01:00:20;;;;;;;;;134.00;112.50;;;;;1.22;89.54;100482.72;6283284;20;3715949;-44
2022/02/10 01:29:52;;;;;;;;;73.00;55.00;;;;;3.16;91.35;100470.16;6315279;20;2891152;-46
2022/02/10 01:32:21;;;;;;;;;68.50;56.50;;;;;3.15;91.71;100463.97;6315156;20;2866929;-44
2022/02/10 01:34:52;;;;;;;;;74.67;56.67;;;;;3.29;91.21;100461.94;6281740;20;2882624;-44
2022/02/10 01:37:22;;;;;;;;;76.00;58.00;;;;;2.86;91.16;100462.72;6312311;20;2877418;-45
2022/02/10 01:39:55;;;;;;;;;77.00;61.00;;;;;2.67;91.17;100466.59;6311978;20;2500376;-44
2022/02/10 01:43:10;;;;;;;;;73.33;58.00;;;;;2.70;91.54;100465.69;6283658;20;2885773;-44
2022/02/10 02:04:50;;;;;;;;;71.50;57.00;;;;;3.53;92.73;100465.03;6276067;20;2500290;-44
2022/02/10 02:07:27;;;;;;;;;69.33;53.00;;;;;3.58;92.55;100455.19;6279742;20;2876352;-44
2022/02/10 02:09:56;;;;;;;;;69.00;53.50;;;;;3.82;91.60;100460.88;6309973;20;2865872;-45
2022/02/10 02:12:25;;;;;;;;;74.00;58.00;;;;;3.72;91.40;100460.22;6281306;20;2888808;-46
2022/02/10 02:14:54;;;;;;;;;69.00;54.50;;;;;3.83;91.08;100459.97;6279626;20;2875275;-45
2022/02/10 02:17:23;;;;;;;;;70.50;56.50;;;;;3.76;91.09;100456.56;6280044;20;2869033;-48
2022/02/10 02:19:51;;;;;;;;;71.00;55.00;;;;;3.76;91.02;100463.66;6282525;20;2872578;-48
2022/02/10 02:22:19;;;;;;;;;71.00;54.50;;;;;3.65;91.23;100462.09;6280304;20;2500491;-45
2022/02/10 02:24:49;;;;;;;;;82.00;62.00;;;;;3.29;87.73;100467.25;6279183;20;2880483;-45
2022/02/10 02:27:19;;;;;;;;;87.67;64.00;;;;;1.54;88.89;100459.41;6280623;20;3651262;-45
2022/02/10 02:30:00;;;;;;;;;78.33;62.67;;;;;1.56;89.28;100466.47;6312459;20;2877566;-44
2022/02/10 02:32:35;;;;;;;;;85.33;63.67;;;;;1.71;90.18;100476.84;6312055;20;3661671;-46
2022/02/10 02:35:27;;;;;;;;;87.33;62.00;;;;;1.54;90.46;100469.97;6310394;20;2894127;-46
2022/02/10 02:38:22;;;;;;;;;80.33;63.67;;;;;2.12;90.86;100470.97;6312285;20;3621059;-45
2022/02/10 03:06:29;;;;;;;;;87.33;63.67;;;;;3.71;91.27;100448.72;6318003;20;3657545;-44
2022/02/10 03:09:04;;;;;;;;;86.33;64.33;;;;;3.69;91.99;100442.56;6280284;20;3659605;-44
2022/02/10 03:11:39;;;;;;;;;89.67;66.00;;;;;3.92;91.28;100441.16;6314506;20;3654475;-44
2022/02/10 03:14:14;;;;;;;;;92.00;67.67;;;;;3.66;91.80;100450.59;6313162;20;3655430;-44
2022/02/10 04:02:39;;;;;;;;;87.00;66.00;;;;;3.86;91.60;100443.97;6315995;20;3636837;-44
2022/02/10 04:14:52;;;;;;;;;78.00;59.00;;;;;3.72;92.01;100454.91;6275703;20;2500369;-44
2022/02/10 04:20:52;;;;;;;;;69.00;55.50;;;;;3.27;94.02;100446.97;6316538;20;2869023;-43
2022/02/10 04:30:53;;;;;;;;;61.00;47.50;;;;;3.42;94.63;100443.09;6280066;20;2491931;-45
2022/02/10 04:55:50;;;;;;;;;75.00;57.00;;;;;0.86;91.51;100416.09;6313651;20;2872174;-47
2022/02/10 05:01:20;;;;;;;;;74.00;58.00;;;;;0.40;92.65;100427.09;6281520;20;2879958;-44
2022/02/10 05:22:46;;;;;;;;;74.00;58.00;;;;;2.52;94.90;100461.56;6280587;20;2877376;-43
2022/02/10 05:33:55;;;;;;;;;84.00;61.67;;;;;2.75;95.21;100456.75;6313912;20;3650274;-44
2022/02/10 05:36:29;;;;;;;;;79.33;61.33;;;;;2.82;94.54;100458.41;6314260;20;3633740;-44
2022/02/10 05:39:11;;;;;;;;;85.00;61.33;;;;;2.58;94.90;100458.78;6312382;20;3655467;-46
2022/02/10 05:41:59;;;;;;;;;81.67;64.00;;;;;2.65;95.07;100457.78;6312923;20;2883789;-45
2022/02/10 05:50:34;;;;;;;;;89.67;67.33;;;;;2.98;95.81;100482.00;6311324;20;3648218;-46
2022/02/10 05:58:29;;;;;;;;;100.33;76.67;;;;;2.94;96.91;100485.59;6310257;20;3677298;-45
2022/02/10 07:07:59;;;;;;;;;91.00;72.00;;;;;6.97;77.63;100487.72;6278286;20;3640941;-46
2022/02/10 07:44:53;;;;;;;;;117.75;92.00;;;;;8.27;75.05;100471.41;6278614;20;4469983;-46
2022/02/10 08:29:29;;;;;;;;;53.67;45.33;;;;;9.38;73.58;100448.94;6312551;20;2856488;-46
2022/02/10 08:51:04;;;;;;;;;35.00;32.00;;;;;10.19;69.32;100431.78;6285150;20;3598211;-47
2022/02/10 09:02:15;;;;;;;;;30.67;27.00;;;;;10.96;66.08;100434.22;6281373;20;2854429;-45
2022/02/10 09:04:59;;;;;;;;;29.00;28.00;;;;;10.60;66.77;100430.72;6315497;20;3591938;-45
2022/02/10 09:23:37;;;;;;;;;13.00;11.67;;;;;10.84;61.46;100428.59;6283723;20;3520008;-48
2022/02/10 10:01:46;;;;;;;;;17.00;17.00;;;;;12.18;57.98;100408.91;6275497;20;2492001;-46
2022/02/10 10:04:25;;;;;;;;;17.67;16.00;;;;;12.17;58.59;100396.41;6279698;20;3554406;-45
2022/02/10 10:07:48;;;;;;;;;16.67;16.67;;;;;11.71;57.66;100398.94;6282269;20;3560726;-52
2022/02/10 10:16:23;;;;;;;;;18.50;16.00;;;;;12.12;57.39;100398.50;6281390;20;2500247;-46
2022/02/10 10:19:12;;;;;;;;;17.50;16.00;;;;;12.17;56.46;100380.25;6282476;20;2815882;-45
2022/02/10 10:21:47;;;;;;;;;21.00;19.00;;;;;12.36;57.81;100375.53;6278936;20;2500246;-48
2022/02/10 10:24:42;;;;;;;;;16.00;15.33;;;;;12.40;56.64;100374.41;6281618;20;3542978;-48
2022/02/10 10:44:14;;;;;;;;;16.00;16.00;;;;;12.27;57.51;100368.00;6311386;20;3554455;-45
2022/02/10 10:57:25;;;;;;;;;21.50;19.50;;;;;12.52;55.75;100329.72;6282495;20;2834679;-46
2022/02/10 11:38:09;;;;;;;;;36.33;33.67;;;;;13.65;54.47;100285.94;6287645;20;3584735;-46
2022/02/10 11:41:07;;;;;;;;;47.33;37.33;;;;;13.39;55.24;100281.25;6285729;20;2862968;-46
2022/02/10 12:29:32;;;;;;;;;23.00;21.00;;;;;13.94;53.17;100243.53;6284424;20;2846127;-46
2022/02/10 12:36:23;;;;;;;;;18.00;18.00;;;;;13.91;53.58;100211.34;6317871;20;3564821;-46
2022/02/10 12:38:59;;;;;;;;;18.00;16.00;;;;;14.05;53.06;100216.69;6310750;20;2821078;-46
2022/02/10 13:35:12;;;;;;;;;21.50;18.00;;;;;14.40;50.30;100144.06;6281596;20;2833679;-46
2022/02/10 14:16:28;;;;;;;;;11.00;9.00;;;;;14.18;47.93;100096.03;6316085;20;2764828;-46
2022/02/10 14:19:07;;;;;;;;;19.00;16.50;;;;;14.11;48.24;100096.59;6314228;20;2491913;-47
2022/02/10 14:21:46;;;;;;;;;17.00;17.00;;;;;14.12;48.01;100091.09;6283465;20;2821232;-47
2022/02/10 14:27:02;;;;;;;;;21.50;20.00;;;;;14.13;48.16;100086.53;6283640;20;2841955;-48
2022/02/10 14:29:31;;;;;;;;;16.00;16.00;;;;;13.89;48.66;100079.19;6285018;20;2821135;-46
2022/02/10 14:32:01;;;;;;;;;21.67;19.00;;;;;14.02;48.55;100081.91;6281894;20;3569010;-47
2022/02/10 14:34:29;;;;;;;;;17.00;16.50;;;;;14.05;49.06;100074.44;6284626;20;2826374;-46
2022/02/10 14:37:18;;;;;;;;;21.50;20.00;;;;;14.00;48.56;100075.72;6284026;20;2496134;-45
2022/02/10 14:40:25;;;;;;;;;18.00;17.00;;;;;14.05;48.68;100073.56;6285179;20;2827336;-46
2022/02/10 15:12:01;;;;;;;;;25.00;23.00;;;;;13.20;51.29;100078.41;6287638;20;2719046;-50
2022/02/10 15:17:10;;;;;;;;;25.50;20.50;;;;;13.28;51.46;100089.59;6285099;20;2839923;-50
2022/02/10 15:36:27;;;;;;;;;23.00;18.50;;;;;12.45;53.84;100057.22;6314295;20;2500415;-46
2022/02/10 16:17:26;;;;;;;;;33.00;29.00;;;;;10.97;57.60;100075.06;6285678;20;3610740;-45
2022/02/10 16:19:55;;;;;;;;;34.67;28.33;;;;;10.89;57.76;100077.31;6315779;20;3609827;-44
2022/02/10 16:22:26;;;;;;;;;38.33;35.00;;;;;10.93;57.80;100084.25;6315395;20;3595109;-43
2022/02/10 16:25:03;;;;;;;;;34.33;32.67;;;;;10.81;58.06;100084.94;6281758;20;2861801;-43
2022/02/10 16:27:34;;;;;;;;;36.67;33.67;;;;;10.45;58.83;100078.84;6317328;20;3579425;-43
2022/02/10 16:30:13;;;;;;;;;62.00;49.00;;;;;10.59;58.77;100080.78;6284355;20;3627409;-44
2022/02/10 16:33:03;;;;;;;;;75.00;56.00;;;;;10.62;58.86;100085.97;6315590;20;3630474;-43
2022/02/10 16:35:52;;;;;;;;;72.33;55.33;;;;;10.41;59.14;100079.09;6314889;20;3630471;-44
2022/02/10 16:38:44;;;;;;;;;72.67;54.00;;;;;9.94;60.24;100069.06;6312856;20;3638809;-44
2022/02/10 16:41:34;;;;;;;;;70.00;52.00;;;;;9.62;61.44;100056.38;6313384;20;3632651;-43
2022/02/10 16:44:24;;;;;;;;;71.00;54.33;;;;;9.75;61.64;100056.63;6312451;20;3635630;-44
2022/02/10 16:47:15;;;;;;;;;66.33;50.33;;;;;9.42;62.00;100045.81;6281287;20;3635648;-44
2022/02/10 16:50:05;;;;;;;;;65.00;50.33;;;;;9.17;63.49;100055.09;6315785;20;3625615;-44
2022/02/10 16:53:00;;;;;;;;;71.00;52.67;;;;;9.04;64.36;100062.00;6314890;20;3648150;-44
2022/02/10 17:02:26;;;;;;;;;65.33;49.33;;;;;9.02;64.16;100067.44;6314257;20;2880521;-43
2022/02/10 17:05:25;;;;;;;;;70.33;54.67;;;;;8.75;65.31;100068.78;6309966;20;2875360;-44
2022/02/10 17:17:59;;;;;;;;;73.33;56.67;;;;;8.30;66.51;100057.47;6279079;20;3628417;-46
2022/02/10 17:26:26;;;;;;;;;80.33;62.33;;;;;8.27;67.30;100065.63;6313808;20;3654440;-44
2022/02/10 17:28:54;;;;;;;;;76.67;60.00;;;;;8.21;67.54;100065.03;6307984;20;3637826;-44
2022/02/10 17:37:01;;;;;;;;;102.33;84.67;;;;;8.21;67.51;100067.72;6280341;20;3688799;-43
2022/02/10 17:42:49;;;;;;;;;87.67;70.33;;;;;7.97;68.17;100069.69;6312568;20;3671167;-46
2022/02/10 17:53:38;;;;;;;;;96.33;80.33;;;;;7.62;69.60;100067.63;6217932;20;3675216;-45
2022/02/10 17:56:10;;;;;;;;;98.33;76.00;;;;;7.68;69.27;100069.16;6278396;20;3676332;-44
2022/02/10 17:58:41;;;;;;;;;95.33;82.67;;;;;7.81;69.26;100065.03;6279909;20;3684642;-45
2022/02/10 18:01:12;;;;;;;;;89.00;71.33;;;;;7.97;69.13;100065.22;6279642;20;3665286;-44
2022/02/10 18:03:41;;;;;;;;;88.33;72.00;;;;;7.83;69.37;100056.94;6279431;20;3659607;-44
2022/02/10 18:06:21;;;;;;;;;95.33;81.33;;;;;7.75;69.63;100057.28;6280495;20;3658671;-44
2022/02/10 18:17:39;;;;;;;;;84.67;63.00;;;;;7.80;69.73;100052.59;6280089;20;3654499;-44
2022/02/10 18:20:25;;;;;;;;;88.33;71.33;;;;;7.37;70.91;100048.25;6280307;20;3670050;-44
2022/02/10 19:09:37;;;;;;;;;67.67;51.33;;;;;8.23;68.01;100031.06;6311217;20;2878494;-45
2022/02/10 19:12:16;;;;;;;;;61.67;45.00;;;;;8.06;68.46;100027.38;6312996;20;2878751;-44
2022/02/10 19:14:56;;;;;;;;;65.33;51.00;;;;;8.32;68.57;100019.91;6310367;20;2873217;-44
2022/02/10 19:17:28;;;;;;;;;67.67;53.00;;;;;8.16;68.71;100018.91;6309691;20;3632643;-47
2022/02/10 19:19:58;;;;;;;;;71.00;52.67;;;;;8.25;68.77;100021.16;6311799;20;3635765;-45
2022/02/10 19:22:27;;;;;;;;;65.33;50.67;;;;;8.25;68.49;100018.50;6310167;20;2874279;-45
2022/02/10 19:24:57;;;;;;;;;67.33;51.33;;;;;8.16;68.90;100027.78;6307096;20;3629393;-44
2022/02/10 19:27:26;;;;;;;;;65.00;51.50;;;;;8.25;67.83;100026.53;6311938;20;2859641;-44
2022/02/10 19:29:58;;;;;;;;;62.00;49.00;;;;;8.30;67.32;100029.84;6279999;20;2864833;-45
2022/02/10 19:32:30;;;;;;;;;66.67;51.33;;;;;8.42;66.38;100026.63;6277819;20;3624227;-45
2022/02/10 19:35:00;;;;;;;;;69.00;53.33;;;;;8.25;66.28;100037.22;6310587;20;3628564;-44
2022/02/10 19:37:31;;;;;;;;;62.33;51.33;;;;;8.41;65.28;100032.91;6309486;20;2879661;-45
2022/02/10 19:40:03;;;;;;;;;61.67;49.00;;;;;8.28;65.43;100039.75;6310362;20;3629451;-45
2022/02/10 19:42:36;;;;;;;;;63.67;47.00;;;;;8.36;64.88;100029.56;6311148;20;3634599;-44
2022/02/10 19:45:07;;;;;;;;;68.00;50.33;;;;;8.27;64.88;100028.19;6308157;20;3645043;-46
2022/02/10 19:47:38;;;;;;;;;69.67;51.67;;;;;8.35;64.47;100030.50;6314147;20;3622225;-45
2022/02/10 19:50:15;;;;;;;;;65.00;50.33;;;;;8.34;64.92;100031.44;6316778;20;3622198;-44
2022/02/10 19:52:49;;;;;;;;;60.00;43.33;;;;;8.23;64.64;100034.59;6315556;20;2886762;-49
2022/02/10 19:55:21;;;;;;;;;64.67;51.33;;;;;8.47;64.11;100040.63;6313705;20;3612723;-50
2022/02/10 19:57:58;;;;;;;;;63.00;49.00;;;;;8.28;64.77;100040.59;6316685;20;3631735;-46
2022/02/10 20:00:33;;;;;;;;;62.00;51.00;;;;;8.20;64.56;100033.88;6314190;20;2870357;-47
2022/02/10 20:03:10;;;;;;;;;59.33;47.67;;;;;8.32;63.93;100041.31;6316307;20;3599265;-44
2022/02/10 20:05:45;;;;;;;;;61.33;47.33;;;;;8.44;63.67;100048.81;6317501;20;3628349;-44
2022/02/10 20:08:25;;;;;;;;;69.00;52.33;;;;;8.40;64.03;100041.00;6315543;20;3644034;-46
2022/02/10 20:10:56;;;;;;;;;65.67;51.33;;;;;8.33;64.15;100051.09;6316807;20;3626281;-46
2022/02/10 20:13:29;;;;;;;;;78.00;58.33;;;;;8.27;64.36;100040.69;6314643;20;3629429;-44
2022/02/10 20:16:04;;;;;;;;;87.00;69.33;;;;;8.03;65.07;100043.56;6314332;20;3661803;-45
2022/02/10 20:18:35;;;;;;;;;87.00;63.00;;;;;7.99;65.18;100044.63;6282614;20;3648181;-45
2022/02/10 20:21:08;;;;;;;;;83.33;62.33;;;;;8.26;64.32;100044.28;6315777;20;3638829;-45
2022/02/10 20:23:38;;;;;;;;;71.33;56.00;;;;;8.16;64.47;100042.97;6314995;20;3627335;-45
2022/02/10 20:26:13;;;;;;;;;74.00;56.67;;;;;7.88;65.18;100045.09;6314949;20;3628397;-45
2022/02/10 20:28:44;;;;;;;;;79.00;61.00;;;;;8.03;65.38;100037.31;6311470;20;3642976;-45
2022/02/10 20:31:15;;;;;;;;;85.00;62.00;;;;;7.84;65.58;100038.16;6281293;20;3644119;-44
2022/02/10 20:33:46;;;;;;;;;80.33;60.00;;;;;7.93;65.46;100034.22;6314906;20;3647102;-46
2022/02/10 20:36:16;;;;;;;;;95.67;76.33;;;;;7.98;65.24;100029.53;6315057;20;3682505;-45
2022/02/10 20:38:49;;;;;;;;;95.00;81.33;;;;;7.70;66.24;100035.22;6281906;20;3680408;-45
2022/02/10 20:41:19;;;;;;;;;97.00;80.33;;;;;7.68;66.56;100023.72;6282048;20;3691926;-46
2022/02/10 20:43:54;;;;;;;;;92.33;78.67;;;;;7.60;66.59;100026.75;6282710;20;3665856;-45
2022/02/10 20:46:26;;;;;;;;;94.00;78.00;;;;;7.38;67.41;100024.16;6279599;20;3667971;-44
2022/02/10 20:49:00;;;;;;;;;91.00;73.33;;;;;7.42;67.53;100024.88;6280810;20;3666080;-46
2022/02/10 20:51:30;;;;;;;;;90.33;70.00;;;;;7.20;67.03;100025.78;6282658;20;3664810;-45
2022/02/10 20:54:00;;;;;;;;;95.67;74.67;;;;;7.02;68.32;100031.91;6280496;20;3666885;-45
2022/02/10 20:56:30;;;;;;;;;89.67;69.33;;;;;7.09;67.86;100030.72;6278830;20;3665203;-44
2022/02/10 20:59:07;;;;;;;;;94.00;74.00;;;;;6.86;68.72;100017.47;6278694;20;3666869;-45
2022/02/10 21:01:37;;;;;;;;;89.67;74.00;;;;;6.72;69.46;100021.56;6278271;20;3663768;-44
2022/02/10 21:04:06;;;;;;;;;98.67;81.00;;;;;6.72;69.17;100023.38;6280679;20;3681493;-46
2022/02/10 21:09:22;;;;;;;;;99.67;79.67;;;;;6.04;71.05;100012.66;6277491;20;3691098;-44
2022/02/10 21:11:56;;;;;;;;;89.33;66.67;;;;;6.02;70.88;100003.84;6281965;20;3656499;-44
2022/02/10 21:14:28;;;;;;;;;90.00;67.33;;;;;6.06;71.49;100005.47;6311906;20;3650401;-44
2022/02/10 21:17:05;;;;;;;;;87.67;64.33;;;;;6.29;70.44;100009.94;6313001;20;3653343;-44
2022/02/10 21:19:41;;;;;;;;;85.00;67.33;;;;;6.30;70.61;100011.66;6312664;20;3622161;-44
2022/02/10 21:22:16;;;;;;;;;90.00;68.33;;;;;6.15;71.07;100007.78;6311316;20;3658960;-44
2022/02/10 21:25:03;;;;;;;;;92.67;71.67;;;;;6.01;71.86;99994.13;6275864;20;3658640;-45
2022/02/10 21:27:42;;;;;;;;;88.33;77.00;;;;;5.82;71.71;99993.91;6312675;20;3652325;-45
2022/02/10 21:30:14;;;;;;;;;81.33;66.33;;;;;5.66;72.19;99993.59;6313842;20;3640892;-46
2022/02/10 21:32:56;;;;;;;;;88.00;72.00;;;;;5.82;72.62;99993.91;6313962;20;3659779;-44
2022/02/10 21:38:00;;;;;;;;;93.67;70.00;;;;;5.88;72.67;99999.00;6277382;20;3658982;-44
2022/02/10 21:58:50;;;;;;;;;88.67;65.00;;;;;6.47;70.52;100010.13;6312721;20;3671050;-45
2022/02/10 22:20:16;;;;;;;;;84.67;65.00;;;;;6.45;71.12;100026.19;6310440;20;3641957;-43
2022/02/10 22:23:07;;;;;;;;;79.00;60.67;;;;;6.44;70.89;100037.78;6309396;20;3633694;-44
2022/02/10 22:25:37;;;;;;;;;85.67;65.00;;;;;6.42;71.43;100042.28;6308738;20;3650248;-43
2022/02/10 22:28:27;;;;;;;;;84.00;64.67;;;;;6.37;71.29;100036.28;6311579;20;3638759;-44
2022/02/10 22:31:13;;;;;;;;;86.00;65.00;;;;;6.32;70.96;100039.13;6311920;20;3651395;-45
2022/02/10 22:36:21;;;;;;;;;83.67;61.67;;;;;6.15;71.49;100039.75;6310558;20;3617924;-43
2022/02/10 22:38:58;;;;;;;;;88.50;64.50;;;;;5.96;71.93;100044.06;6310735;20;3517973;-44
2022/02/10 22:41:30;;;;;;;;;83.67;64.00;;;;;6.02;71.89;100034.97;6310918;20;3636711;-43
2022/02/10 22:44:03;;;;;;;;;84.00;65.67;;;;;5.81;72.75;100029.44;6309061;20;3626259;-44
2022/02/10 22:46:34;;;;;;;;;82.67;63.67;;;;;5.98;72.46;100030.66;6309237;20;3646106;-45
2022/02/10 22:49:04;;;;;;;;;77.67;61.33;;;;;6.03;72.11;100034.03;6311725;20;3613807;-43
2022/02/10 22:51:35;;;;;;;;;88.67;66.33;;;;;6.03;71.81;100032.25;6310027;20;3632769;-43
2022/02/10 22:54:07;;;;;;;;;95.67;77.33;;;;;5.82;72.51;100040.97;6311297;20;3678366;-43
2022/02/10 22:56:38;;;;;;;;;93.67;71.00;;;;;5.87;72.54;100039.00;6278011;20;3662735;-44
2022/02/10 22:59:09;;;;;;;;;95.67;74.67;;;;;5.86;72.39;100030.16;6309907;20;3669317;-44
2022/02/10 23:01:40;;;;;;;;;100.33;79.33;;;;;5.79;73.28;100030.44;6279053;20;3686677;-44
2022/02/10 23:04:10;;;;;;;;;89.67;69.00;;;;;5.73;72.96;100027.06;6279848;20;3650233;-44
2022/02/10 23:07:06;;;;;;;;;95.67;71.67;;;;;5.77;72.87;100022.50;6275939;20;3654438;-44
2022/02/10 23:12:43;;;;;;;;;94.67;76.33;;;;;5.44;73.52;100022.78;6277490;20;3670103;-44
2022/02/10 23:15:37;;;;;;;;;92.33;71.00;;;;;5.27;75.00;100028.69;6273265;20;3667338;-44
2022/02/10 23:18:34;;;;;;;;;87.00;66.67;;;;;5.46;74.76;100023.59;6274846;20;3645083;-51
2022/02/10 23:21:10;;;;;;;;;91.00;67.67;;;;;5.49;74.03;100023.50;6302126;20;3653386;-45
2022/02/10 23:23:46;;;;;;;;;89.33;66.67;;;;;5.23;75.11;100020.88;6312547;20;3657531;-46
2022/02/10 23:26:21;;;;;;;;;91.33;68.33;;;;;5.14;75.15;100018.53;6314777;20;3638803;-44
2022/02/10 23:28:54;;;;;;;;;89.67;70.33;;;;;4.88;75.89;100011.44;6282923;20;3648176;-44
2022/02/10 23:31:27;;;;;;;;;90.33;66.67;;;;;5.09;75.52;100023.16;6312771;20;3649277;-45
2022/02/10 23:34:01;;;;;;;;;89.33;73.67;;;;;4.97;75.16;100013.75;6315982;20;3661803;-46
2022/02/10 23:36:52;;;;;;;;;94.67;72.00;;;;;4.87;75.59;100018.53;6312397;20;3689796;-43
2022/02/10 23:44:31;;;;;;;;;77.67;60.00;;;;;5.26;75.74;100004.78;6315708;20;2879624;-45
2022/02/10 23:47:04;;;;;;;;;80.67;60.67;;;;;5.27;75.84;100006.53;6315175;20;3639794;-45
2022/02/10 23:49:37;;;;;;;;;72.67;58.00;;;;;5.28;76.17;100013.59;6316575;20;2880588;-44
2022/02/10 23:52:09;;;;;;;;;72.00;56.50;;;;;5.52;75.64;100016.31;6315060;20;2860792;-44
2022/02/10 23:54:43;;;;;;;;;82.00;63.33;;;;;5.50;75.16;100003.03;6314116;20;2886820;-44
